Terminal Aerodrome Forecast
Issued by NWS

Home | Current Version | Previous Version | Text Only | Print | Product List | Glossary On
Versions: 1 2 3 4 5 6 7 8 9 10 11 12 13 14 15
312
FTUS43 KICT 141131
TAFCNU
TAF
KCNU 141131Z 1412/1512 34006KT P6SM BKN040
     FM142000 30007KT P6SM OVC100
     FM150800 31006KT P6SM SCT100=

USA.gov is the U.S. government's official web portal to all federal, state and local government web resources and services.